Time;durP1;ratioP1;P1;durP2;ratioP2;P2;SDS_P1;SDS_P2;PMS_P1;PMS_P2;Temp;Humidity;BMP_temperature;BMP_pressure;BME280_temperature;BME280_humidity;BME280_pressure;Samples;Min_cycle;Max_cycle;Signal;HPM_P1;HPM_P2
2022/02/04 00:08:42;;;;;;;;;;;;;;;-19.53;84.70;101246.16;5045199;28;19978;-62
2022/02/04 00:24:50;;;;;;;;;;;;;;;-19.82;85.80;101230.06;5052440;28;20496;-65
2022/02/04 00:27:21;;;;;;;;;;;;;;;-19.88;86.31;101219.69;5052196;28;20019;-65
2022/02/04 00:29:55;;;;;;;;;;;;;;;-19.80;85.75;101213.69;5052067;28;20016;-64
2022/02/04 00:32:24;;;;;;;;;;;;;;;-19.76;85.44;101208.19;5052088;28;20437;-65
2022/02/04 00:35:00;;;;;;;;;;;;;;;-19.75;84.52;101222.34;5052028;28;20429;-66
2022/02/04 00:37:35;;;;;;;;;;;;;;;-19.81;85.36;101225.19;5052065;28;20323;-65
2022/02/04 00:40:10;;;;;;;;;;;;;;;-19.94;85.63;101227.53;5052106;28;19979;-66
2022/02/04 00:42:37;;;;;;;;;;;;;;;-19.86;85.45;101224.00;5052274;28;19986;-65
2022/02/04 00:45:16;;;;;;;;;;;;;;;-19.87;85.96;101224.75;5052134;28;19932;-64
2022/02/04 00:47:48;;;;;;;;;;;;;;;-19.84;85.94;101221.66;5052017;28;19932;-65
2022/02/04 00:50:26;;;;;;;;;;;;;;;-19.80;84.96;101221.13;5051795;28;20299;-62
2022/02/04 00:53:05;;;;;;;;;;;;;;;-19.77;85.22;101226.31;5052035;28;19925;-67
2022/02/04 00:55:39;;;;;;;;;;;;;;;-19.73;84.73;101215.00;5053975;28;20371;-66
2022/02/04 01:13:11;;;;;;;;;;;;;;;-19.81;85.56;101197.09;5055304;28;19932;-66
2022/02/04 01:26:03;;;;;;;;;;;;;;;-19.91;85.25;101200.50;5055287;28;20022;-61
2022/02/04 01:28:30;;;;;;;;;;;;;;;-19.85;85.30;101192.69;5054878;28;20015;-62
2022/02/04 01:30:57;;;;;;;;;;;;;;;-19.88;85.01;101203.22;5055230;28;19932;-66
2022/02/04 01:33:23;;;;;;;;;;;;;;;-19.95;85.63;101196.09;5055415;28;20052;-65
2022/02/04 01:35:50;;;;;;;;;;;;;;;-19.91;85.64;101188.09;5054804;28;19935;-66
2022/02/04 01:38:18;;;;;;;;;;;;;;;-19.80;85.70;101179.88;5054682;28;19936;-66
2022/02/04 01:40:45;;;;;;;;;;;;;;;-19.80;85.33;101179.88;5054617;28;19925;-65
2022/02/04 01:43:11;;;;;;;;;;;;;;;-19.67;84.86;101179.16;5054964;28;19932;-65
2022/02/04 01:45:38;;;;;;;;;;;;;;;-19.82;84.98;101173.06;5054797;28;19931;-66
2022/02/04 01:48:05;;;;;;;;;;;;;;;-19.84;85.08;101169.63;5054523;28;19924;-62
2022/02/04 01:50:32;;;;;;;;;;;;;;;-19.80;85.52;101162.53;5054429;28;19925;-66
2022/02/04 01:53:00;;;;;;;;;;;;;;;-19.74;85.40;101167.06;5054499;28;19929;-62
2022/02/04 01:55:28;;;;;;;;;;;;;;;-19.87;85.64;101164.44;5054505;28;19925;-66
2022/02/04 01:57:55;;;;;;;;;;;;;;;-19.84;86.49;101154.75;5054396;28;20391;-65
2022/02/04 02:00:21;;;;;;;;;;;;;;;-19.90;86.53;101157.66;5054433;28;19948;-66
2022/02/04 02:02:48;;;;;;;;;;;;;;;-19.92;86.30;101148.38;5054230;28;19925;-64
2022/02/04 02:05:15;;;;;;;;;;;;;;;-19.89;86.26;101142.03;5054201;28;20306;-66
2022/02/04 02:07:46;;;;;;;;;;;;;;;-19.90;85.51;101152.69;5054219;28;19925;-66
2022/02/04 02:10:15;;;;;;;;;;;;;;;-20.02;87.05;101156.75;5053980;28;19925;-62
2022/02/04 02:12:51;;;;;;;;;;;;;;;-20.00;86.05;101156.09;5054304;28;19979;-67
2022/02/04 02:15:24;;;;;;;;;;;;;;;-20.08;86.26;101154.69;5053926;28;20005;-66
2022/02/04 02:45:36;;;;;;;;;;;;;;;-19.84;86.68;101120.94;5033576;28;19979;-66
2022/02/04 02:48:20;;;;;;;;;;;;;;;-19.77;86.64;101113.19;5033642;28;19925;-66
2022/02/04 02:51:15;;;;;;;;;;;;;;;-19.71;86.38;101117.72;5033198;28;19964;-66
2022/02/04 02:53:56;;;;;;;;;;;;;;;-19.74;86.44;101116.66;5033332;28;20019;-66
2022/02/04 02:56:56;;;;;;;;;;;;;;;-19.73;86.19;101129.13;5033373;28;19929;-66
2022/02/04 02:59:20;;;;;;;;;;;;;;;-19.70;86.28;101126.91;5033117;28;20364;-66
2022/02/04 03:01:50;;;;;;;;;;;;;;;-19.69;86.20;101125.28;5033261;28;19960;-66
2022/02/04 03:04:17;;;;;;;;;;;;;;;-19.76;86.89;101119.00;5033174;28;19932;-66
2022/02/04 03:06:45;;;;;;;;;;;;;;;-19.81;86.80;101115.34;5033401;28;19925;-67
2022/02/04 03:09:11;;;;;;;;;;;;;;;-19.52;86.13;101121.47;5033157;28;20303;-66
2022/02/04 03:11:40;;;;;;;;;;;;;;;-19.53;85.81;101129.66;5032974;28;19932;-67
2022/02/04 03:14:07;;;;;;;;;;;;;;;-19.46;85.75;101125.25;5032853;28;19929;-66
2022/02/04 03:16:33;;;;;;;;;;;;;;;-19.52;85.27;101127.28;5033100;28;19928;-66
2022/02/04 03:19:02;;;;;;;;;;;;;;;-19.58;86.19;101124.38;5032944;28;19929;-66
2022/02/04 03:21:33;;;;;;;;;;;;;;;-19.50;86.21;101113.38;5032964;28;20338;-67
2022/02/04 03:24:03;;;;;;;;;;;;;;;-19.57;86.07;101108.75;5046967;22;19968;-61
2022/02/04 03:26:36;;;;;;;;;;;;;;;-19.65;86.15;101109.81;5052539;28;19925;-66
2022/02/04 03:29:04;;;;;;;;;;;;;;;-19.40;85.76;101107.47;5052867;28;20343;-66
2022/02/04 03:31:36;;;;;;;;;;;;;;;-19.50;86.18;101092.69;5053009;28;20015;-67
2022/02/04 03:34:04;;;;;;;;;;;;;;;-19.60;86.32;101082.13;5052737;28;19929;-65
2022/02/04 03:36:30;;;;;;;;;;;;;;;-19.53;85.96;101078.47;5052646;28;19971;-66
2022/02/04 03:38:57;;;;;;;;;;;;;;;-19.45;85.83;101074.06;5052452;28;20375;-65
2022/02/04 03:41:23;;;;;;;;;;;;;;;-19.46;85.94;101074.81;5052440;28;19931;-66
2022/02/04 03:43:50;;;;;;;;;;;;;;;-19.52;86.14;101074.38;5052875;28;19932;-62
2022/02/04 03:46:18;;;;;;;;;;;;;;;-19.55;86.16;101065.09;5052784;28;19936;-66
2022/02/04 03:48:44;;;;;;;;;;;;;;;-19.56;86.57;101056.81;5052484;28;19932;-65
2022/02/04 03:51:11;;;;;;;;;;;;;;;-19.59;86.38;101056.63;5052469;28;19925;-61
2022/02/04 03:53:37;;;;;;;;;;;;;;;-19.61;86.95;101052.31;5052549;28;20375;-61
2022/02/04 03:56:04;;;;;;;;;;;;;;;-19.65;86.87;101040.44;5052478;28;19925;-61
2022/02/04 03:58:32;;;;;;;;;;;;;;;-19.62;87.10;101039.06;5052915;28;19925;-66
2022/02/04 04:00:58;;;;;;;;;;;;;;;-19.45;86.42;101027.81;5052375;28;19924;-61
2022/02/04 04:03:26;;;;;;;;;;;;;;;-19.49;86.15;101025.91;5052312;28;19924;-61
2022/02/04 04:05:53;;;;;;;;;;;;;;;-19.54;86.68;101017.28;5052155;28;19925;-61
2022/02/04 04:08:20;;;;;;;;;;;;;;;-19.52;86.38;101024.81;5052220;28;20103;-61
2022/02/04 04:10:46;;;;;;;;;;;;;;;-19.60;86.82;101021.78;5052195;28;19925;-61
2022/02/04 04:13:14;;;;;;;;;;;;;;;-19.65;87.04;101021.50;5052360;28;19948;-62
2022/02/04 04:15:40;;;;;;;;;;;;;;;-19.60;86.99;101007.78;5052252;28;19928;-66
2022/02/04 04:18:12;;;;;;;;;;;;;;;-19.53;87.22;101008.22;5052257;28;19935;-63
2022/02/04 04:20:40;;;;;;;;;;;;;;;-19.46;86.30;101008.75;5052133;28;19940;-62
2022/02/04 04:23:07;;;;;;;;;;;;;;;-19.50;86.48;100999.38;5052161;28;20307;-65
2022/02/04 04:25:33;;;;;;;;;;;;;;;-19.59;86.70;101001.22;5052502;28;19925;-66
2022/02/04 04:28:00;;;;;;;;;;;;;;;-19.55;86.59;101011.44;5052126;28;19925;-66
2022/02/04 04:30:27;;;;;;;;;;;;;;;-19.39;85.87;101008.44;5054144;28;19925;-65
2022/02/04 04:32:55;;;;;;;;;;;;;;;-19.38;86.10;100999.38;5056217;28;20298;-66
2022/02/04 04:35:24;;;;;;;;;;;;;;;-19.43;85.88;100996.56;5055780;28;19932;-64
2022/02/04 04:37:58;;;;;;;;;;;;;;;-19.40;86.27;100988.47;5055979;28;19974;-64
2022/02/04 04:40:37;;;;;;;;;;;;;;;-19.34;85.98;100989.78;5055789;28;19963;-66
2022/02/04 04:43:13;;;;;;;;;;;;;;;-19.36;85.61;100988.78;5055911;28;19925;-63
2022/02/04 04:46:01;;;;;;;;;;;;;;;-19.43;86.23;100980.84;5055695;28;20025;-65
2022/02/04 05:26:53;;;;;;;;;;;;;;;-19.35;86.78;100910.31;5053304;28;19924;-68
2022/02/04 05:29:20;;;;;;;;;;;;;;;-19.35;86.74;100911.16;5055134;28;20015;-66
2022/02/04 05:31:46;;;;;;;;;;;;;;;-19.25;86.68;100922.56;5054832;28;19925;-66
2022/02/04 05:34:15;;;;;;;;;;;;;;;-19.28;86.76;100942.22;5054733;28;19929;-67
2022/02/04 05:36:44;;;;;;;;;;;;;;;-19.28;86.45;100929.81;5055008;28;19925;-67
2022/02/04 05:39:13;;;;;;;;;;;;;;;-19.26;86.87;100923.34;5054734;28;20389;-69
2022/02/04 05:41:45;;;;;;;;;;;;;;;-19.17;86.57;100931.38;5054235;28;19925;-67
2022/02/04 05:44:14;;;;;;;;;;;;;;;-19.17;86.29;100914.03;5054459;28;19924;-66
2022/02/04 05:46:49;;;;;;;;;;;;;;;-19.12;86.34;100915.19;5054709;28;19925;-68
2022/02/04 05:49:18;;;;;;;;;;;;;;;-19.09;86.44;100919.47;5054663;28;19929;-67
2022/02/04 05:51:51;;;;;;;;;;;;;;;-19.18;86.54;100924.72;5054692;28;19925;-66
2022/02/04 05:54:23;;;;;;;;;;;;;;;-19.27;86.42;100911.69;5054564;28;19925;-66
2022/02/04 05:56:59;;;;;;;;;;;;;;;-19.13;87.09;100888.66;5054381;28;20364;-67
2022/02/04 05:59:36;;;;;;;;;;;;;;;-19.16;86.85;100885.13;5054778;28;19990;-66
2022/02/04 06:02:11;;;;;;;;;;;;;;;-19.03;86.56;100890.16;5054301;28;20268;-68
2022/02/04 06:04:50;;;;;;;;;;;;;;;-18.94;86.54;100893.19;5054209;28;19931;-67
2022/02/04 06:23:48;;;;;;;;;;;;;;;-18.74;87.53;100849.78;5130819;28;20031;-69
2022/02/04 06:26:15;;;;;;;;;;;;;;;-18.70;87.24;100844.28;5107131;22;19924;-65
2022/02/04 06:28:43;;;;;;;;;;;;;;;-18.74;87.82;100842.34;5089894;28;19924;-65
2022/02/04 06:31:10;;;;;;;;;;;;;;;-18.61;87.71;100835.69;5089661;28;19924;-61
2022/02/04 06:33:36;;;;;;;;;;;;;;;-18.60;87.79;100849.81;5089936;28;19928;-65
2022/02/04 06:36:04;;;;;;;;;;;;;;;-18.57;87.50;100847.50;5086261;28;19970;-65
2022/02/04 06:38:30;;;;;;;;;;;;;;;-18.53;87.91;100827.09;5088426;28;19931;-65
2022/02/04 06:40:57;;;;;;;;;;;;;;;-18.55;87.54;100809.59;5087722;28;19935;-65
2022/02/04 06:43:23;;;;;;;;;;;;;;;-18.52;87.30;100821.34;5088253;28;20294;-64
2022/02/04 06:45:52;;;;;;;;;;;;;;;-18.49;87.68;100827.38;5089552;28;19928;-61
2022/02/04 06:48:18;;;;;;;;;;;;;;;-18.49;87.52;100827.38;5087674;28;20371;-64
2022/02/04 06:50:45;;;;;;;;;;;;;;;-18.45;87.94;100823.44;5087703;28;19932;-64
2022/02/04 06:53:11;;;;;;;;;;;;;;;-18.36;87.52;100828.16;5087871;28;19924;-61
2022/02/04 06:55:38;;;;;;;;;;;;;;;-18.35;87.17;100835.69;5089041;28;19928;-65
2022/02/04 06:58:06;;;;;;;;;;;;;;;-18.23;87.75;100819.06;5087182;28;19931;-65
2022/02/04 07:00:33;;;;;;;;;;;;;;;-18.27;87.37;100823.72;5088486;28;19924;-65
2022/02/04 07:03:00;;;;;;;;;;;;;;;-18.26;87.74;100830.41;5088439;28;19925;-65
2022/02/04 07:05:27;;;;;;;;;;;;;;;-18.20;87.34;100820.00;5087929;28;20130;-65
2022/02/04 07:08:03;;;;;;;;;;;;;;;-18.17;87.69;100822.69;5087548;28;19932;-65
2022/02/04 07:10:38;;;;;;;;;;;;;;;-18.18;87.94;100819.34;5087087;28;19924;-65
2022/02/04 07:13:13;;;;;;;;;;;;;;;-18.11;87.52;100811.47;5068660;28;20327;-64
2022/02/04 07:15:54;;;;;;;;;;;;;;;-18.06;87.64;100817.56;5083716;28;19924;-65
2022/02/04 07:21:07;;;;;;;;;;;;;;;-18.04;87.38;100805.25;5088213;28;19931;-65
2022/02/04 07:23:34;;;;;;;;;;;;;;;-18.01;87.47;100811.25;5077847;28;20440;-63
2022/02/04 07:26:00;;;;;;;;;;;;;;;-18.00;87.36;100794.75;5073985;28;19964;-62
2022/02/04 07:28:27;;;;;;;;;;;;;;;-18.02;87.62;100786.34;5073754;28;19924;-64
2022/02/04 07:30:55;;;;;;;;;;;;;;;-17.99;87.78;100786.50;5073801;28;20023;-62
2022/02/04 07:33:36;;;;;;;;;;;;;;;-17.98;88.00;100790.72;5073272;28;19928;-65
2022/02/04 07:40:52;;;;;;;;;;;;;;;-17.95;87.92;100771.03;5074339;28;19948;-65
2022/02/04 07:41:36;;;;;;;;;;;;;;;-17.92;88.08;100781.16;5074153;28;19924;-66
2022/02/04 07:44:03;;;;;;;;;;;;;;;-17.83;87.30;100778.34;5073205;28;20032;-61
2022/02/04 07:46:30;;;;;;;;;;;;;;;-17.74;88.18;100770.53;5074203;28;19925;-61
2022/02/04 07:48:58;;;;;;;;;;;;;;;-17.73;87.91;100780.56;5073211;28;19924;-65
2022/02/04 07:51:24;;;;;;;;;;;;;;;-17.69;87.07;100769.19;5073042;28;20306;-62
2022/02/04 07:53:51;;;;;;;;;;;;;;;-17.74;87.29;100763.94;5073469;28;20376;-63
2022/02/04 07:56:21;;;;;;;;;;;;;;;-17.72;87.87;100771.47;5073670;28;19928;-66
2022/02/04 07:58:55;;;;;;;;;;;;;;;-17.60;87.78;100759.75;5075059;28;19928;-65
2022/02/04 08:01:25;;;;;;;;;;;;;;;-17.53;86.83;100758.50;5072090;28;19925;-65
2022/02/04 08:03:58;;;;;;;;;;;;;;;-17.55;87.66;100748.44;5072417;28;19932;-65
2022/02/04 08:06:27;;;;;;;;;;;;;;;-17.47;87.83;100752.22;5073489;28;20088;-62
2022/02/04 08:08:59;;;;;;;;;;;;;;;-17.43;87.50;100749.16;5073676;28;19930;-62
2022/02/04 08:11:42;;;;;;;;;;;;;;;-17.44;87.77;100731.66;5072434;28;19932;-66
2022/02/04 08:14:19;;;;;;;;;;;;;;;-17.40;86.64;100717.00;5073068;28;20256;-65
2022/02/04 08:25:41;;;;;;;;;;;;;;;-17.36;88.08;100718.91;5102351;22;20409;-69
2022/02/04 08:34:06;;;;;;;;;;;;;;;-17.24;86.97;100720.34;5022906;28;19948;-68
2022/02/04 08:50:33;;;;;;;;;;;;;;;-17.23;87.76;100692.22;5028547;28;19931;-68
2022/02/04 08:53:08;;;;;;;;;;;;;;;-17.17;87.93;100680.13;5029702;28;20008;-67
2022/02/04 08:55:44;;;;;;;;;;;;;;;-17.12;87.38;100671.28;5027107;28;20321;-68
2022/02/04 08:58:24;;;;;;;;;;;;;;;-17.16;87.91;100665.28;5028141;28;19933;-68
2022/02/04 09:00:59;;;;;;;;;;;;;;;-17.15;87.55;100662.00;5028541;28;20319;-69
2022/02/04 09:03:29;;;;;;;;;;;;;;;-17.11;87.13;100665.50;5028305;28;20463;-68
2022/02/04 09:06:07;;;;;;;;;;;;;;;-17.13;86.66;100660.47;5027322;28;19926;-67
2022/02/04 09:08:35;;;;;;;;;;;;;;;-17.01;87.02;100659.41;5027990;28;19926;-68
2022/02/04 09:11:07;;;;;;;;;;;;;;;-17.02;87.82;100658.56;5028079;28;20033;-69
2022/02/04 09:19:04;;;;;;;;;;;;;;;-16.91;86.74;100639.22;5028140;28;19933;-68
2022/02/04 09:26:46;;;;;;;;;;;;;;;-16.80;87.49;100619.84;5065624;28;19925;-64
2022/02/04 09:29:13;;;;;;;;;;;;;;;-16.73;86.80;100619.38;5068017;28;20378;-65
2022/02/04 09:31:40;;;;;;;;;;;;;;;-16.69;86.68;100614.63;5066043;28;19924;-66
2022/02/04 09:34:06;;;;;;;;;;;;;;;-16.70;86.42;100604.59;5053315;28;19925;-67
2022/02/04 09:36:33;;;;;;;;;;;;;;;-16.63;87.11;100595.81;5034555;28;19925;-61
2022/02/04 09:39:00;;;;;;;;;;;;;;;-16.65;87.69;100584.91;5034985;28;19951;-67
2022/02/04 09:41:27;;;;;;;;;;;;;;;-16.62;88.35;100587.56;5033772;28;19925;-65
2022/02/04 09:43:55;;;;;;;;;;;;;;;-16.47;87.90;100568.41;5034471;28;20338;-63
2022/02/04 09:46:22;;;;;;;;;;;;;;;-16.53;87.79;100568.97;5034538;28;19929;-62
2022/02/04 09:48:53;;;;;;;;;;;;;;;-16.41;86.93;100572.84;5032683;28;19944;-66
2022/02/04 09:51:26;;;;;;;;;;;;;;;-16.29;86.64;100559.34;5033683;28;20012;-66
2022/02/04 10:08:01;;;;;;;;;;;;;;;-15.92;87.63;100517.94;5007645;28;19956;-67
2022/02/04 10:11:18;;;;;;;;;;;;;;;-15.96;87.05;100516.06;5033377;28;19964;-60
2022/02/04 10:13:56;;;;;;;;;;;;;;;-15.86;87.89;100525.69;5033758;28;20007;-65
2022/02/04 10:16:42;;;;;;;;;;;;;;;-15.79;87.56;100520.22;5032646;28;20326;-61
2022/02/04 10:19:23;;;;;;;;;;;;;;;-15.71;87.13;100510.59;5032955;28;19925;-64
2022/02/04 10:21:55;;;;;;;;;;;;;;;-15.67;87.42;100510.75;5033728;28;19929;-62
2022/02/04 10:24:24;;;;;;;;;;;;;;;-15.64;87.58;100503.44;5033976;28;20287;-65
2022/02/04 10:27:01;;;;;;;;;;;;;;;-15.54;87.92;100498.88;5031795;28;19925;-63
2022/02/04 10:29:27;;;;;;;;;;;;;;;-15.49;88.03;100488.31;5033304;28;19925;-62
2022/02/04 10:31:55;;;;;;;;;;;;;;;-15.48;87.81;100486.69;5033165;28;19932;-65
2022/02/04 10:34:24;;;;;;;;;;;;;;;-15.47;87.29;100485.91;5034141;28;19925;-62
2022/02/04 10:36:55;;;;;;;;;;;;;;;-15.38;87.47;100469.69;5032295;28;20016;-65
2022/02/04 10:39:29;;;;;;;;;;;;;;;-15.31;87.50;100468.31;5033950;28;19925;-64
2022/02/04 10:42:25;;;;;;;;;;;;;;;-15.30;87.35;100450.09;5032051;28;19988;-63
2022/02/04 10:45:03;;;;;;;;;;;;;;;-15.23;88.06;100453.69;5029420;28;19929;-61
2022/02/04 10:47:38;;;;;;;;;;;;;;;-15.07;88.60;100435.25;5033359;28;19929;-61
2022/02/04 10:50:12;;;;;;;;;;;;;;;-15.05;88.02;100421.16;5033743;28;19929;-65
2022/02/04 10:53:02;;;;;;;;;;;;;;;-14.98;88.47;100411.50;5032110;28;20295;-65
2022/02/04 10:58:42;;;;;;;;;;;;;;;-14.84;88.78;100392.13;5008278;28;19941;-63
2022/02/04 11:01:17;;;;;;;;;;;;;;;-14.77;88.49;100396.59;5031390;28;19933;-61
2022/02/04 11:03:52;;;;;;;;;;;;;;;-14.71;88.91;100398.47;5032145;28;19948;-62
2022/02/04 11:06:28;;;;;;;;;;;;;;;-14.66;89.40;100402.00;5032273;28;19995;-62
2022/02/04 11:09:06;;;;;;;;;;;;;;;-14.60;89.19;100397.25;5033500;28;19925;-65
2022/02/04 11:31:17;;;;;;;;;;;;;;;-14.31;89.48;100333.38;5106211;28;19931;-65
2022/02/04 11:34:06;;;;;;;;;;;;;;;-14.18;89.43;100331.34;5094830;28;20022;-62
2022/02/04 11:36:42;;;;;;;;;;;;;;;-14.11;89.65;100328.31;5109464;28;19928;-66
2022/02/04 11:48:14;;;;;;;;;;;;;;;-13.80;90.26;100291.91;5107808;28;20408;-62
2022/02/04 11:53:36;;;;;;;;;;;;;;;-13.69;90.33;100274.00;5108751;28;19924;-61
2022/02/04 11:56:03;;;;;;;;;;;;;;;-13.71;89.87;100269.72;5107865;28;20374;-62
2022/02/04 11:58:57;;;;;;;;;;;;;;;-13.65;89.78;100254.91;5108562;28;19932;-64
2022/02/04 12:01:24;;;;;;;;;;;;;;;-13.55;90.20;100251.94;5097879;28;19924;-61
2022/02/04 12:03:55;;;;;;;;;;;;;;;-13.52;89.92;100234.50;5108996;28;20370;-61
2022/02/04 12:06:28;;;;;;;;;;;;;;;-13.49;90.52;100223.75;5107088;28;19924;-66
2022/02/04 12:09:12;;;;;;;;;;;;;;;-13.44;90.08;100225.59;5107683;28;20377;-63
2022/02/04 12:11:40;;;;;;;;;;;;;;;-13.39;90.25;100213.25;5108544;28;19928;-66
2022/02/04 12:14:11;;;;;;;;;;;;;;;-13.36;90.64;100212.50;5107689;28;20278;-65
2022/02/04 12:16:56;;;;;;;;;;;;;;;-13.31;90.27;100196.81;5102355;28;20455;-61
2022/02/04 12:19:35;;;;;;;;;;;;;;;-13.21;90.49;100203.78;5108276;28;20338;-62
2022/02/04 12:22:01;;;;;;;;;;;;;;;-13.16;90.68;100183.91;5108872;28;20297;-65
2022/02/04 12:24:31;;;;;;;;;;;;;;;-13.16;90.62;100179.75;5101220;28;19943;-65
2022/02/04 12:27:13;;;;;;;;;;;;;;;-13.13;90.69;100170.63;5093721;28;20366;-62
2022/02/04 12:29:39;;;;;;;;;;;;;;;-13.04;91.42;100174.28;5094322;28;19931;-65
2022/02/04 12:32:06;;;;;;;;;;;;;;;-13.06;90.96;100160.84;5094264;28;20290;-66
2022/02/04 12:34:35;;;;;;;;;;;;;;;-12.91;91.30;100152.13;5092991;28;19924;-65
2022/02/04 12:37:02;;;;;;;;;;;;;;;-12.84;91.16;100134.81;5093845;28;19927;-62
2022/02/04 12:39:31;;;;;;;;;;;;;;;-12.75;91.86;100134.22;5094439;28;19924;-65
2022/02/04 12:41:59;;;;;;;;;;;;;;;-12.75;91.10;100129.19;5092838;28;19928;-62
2022/02/04 12:44:27;;;;;;;;;;;;;;;-12.66;91.42;100123.59;5093381;28;19931;-61
2022/02/04 12:46:56;;;;;;;;;;;;;;;-12.60;91.77;100119.63;5094273;28;19945;-62
2022/02/04 12:49:25;;;;;;;;;;;;;;;-12.52;91.55;100118.16;5094567;28;19924;-62
2022/02/04 12:51:58;;;;;;;;;;;;;;;-12.44;92.01;100105.00;5093113;28;20016;-62
2022/02/04 12:54:28;;;;;;;;;;;;;;;-12.51;92.22;100094.81;5093926;28;19947;-62
2022/02/04 12:57:28;;;;;;;;;;;;;;;-12.35;92.33;100083.53;5093094;28;22098;-65
2022/02/04 12:59:57;;;;;;;;;;;;;;;-12.24;92.46;100076.28;5093022;28;19924;-62
2022/02/04 13:02:39;;;;;;;;;;;;;;;-12.17;92.65;100072.28;5092786;28;19923;-62
2022/02/04 13:08:03;;;;;;;;;;;;;;;-11.89;93.04;100049.59;5093899;28;20393;-63
2022/02/04 13:10:30;;;;;;;;;;;;;;;-11.77;93.08;100038.94;5093029;28;19969;-65
2022/02/04 13:12:58;;;;;;;;;;;;;;;-11.67;93.82;100040.00;5093272;28;20420;-63
2022/02/04 13:15:27;;;;;;;;;;;;;;;-11.59;93.60;100025.13;5090292;28;19932;-62
2022/02/04 13:17:54;;;;;;;;;;;;;;;-11.48;93.98;100012.03;5092778;28;19967;-62
2022/02/04 13:20:22;;;;;;;;;;;;;;;-11.40;93.77;99990.44;5092762;28;19931;-62
2022/02/04 13:22:49;;;;;;;;;;;;;;;-11.43;93.15;99987.84;5093356;28;20027;-66
2022/02/04 13:25:19;;;;;;;;;;;;;;;-11.37;93.42;99972.06;5094927;28;19924;-65
2022/02/04 13:28:10;;;;;;;;;;;;;;;-11.34;92.88;99969.63;5092217;28;19931;-61
2022/02/04 13:30:38;;;;;;;;;;;;;;;-11.38;93.14;99959.47;5092385;28;19954;-66
2022/02/04 13:33:15;;;;;;;;;;;;;;;-11.38;93.56;99944.41;5092178;28;20283;-62
2022/02/04 13:35:43;;;;;;;;;;;;;;;-11.38;92.88;99946.91;5091656;28;20294;-66
2022/02/04 13:38:20;;;;;;;;;;;;;;;-11.39;92.99;99956.13;5091874;28;20298;-66
2022/02/04 13:41:02;;;;;;;;;;;;;;;-11.43;93.59;99936.78;5092623;28;19930;-66
2022/02/04 13:43:36;;;;;;;;;;;;;;;-11.37;93.94;99923.53;5093765;28;19935;-62
2022/02/04 13:46:13;;;;;;;;;;;;;;;-11.35;93.95;99915.19;5091563;28;19932;-64
2022/02/04 13:48:56;;;;;;;;;;;;;;;-11.37;93.25;99904.28;5085143;28;19967;-62
2022/02/04 13:51:40;;;;;;;;;;;;;;;-11.30;93.60;99887.63;5092107;28;20258;-64
2022/02/04 13:54:10;;;;;;;;;;;;;;;-11.28;93.55;99884.34;5092186;28;19929;-62
2022/02/04 13:56:46;;;;;;;;;;;;;;;-11.27;93.96;99876.00;5092391;28;20028;-67
2022/02/04 13:59:22;;;;;;;;;;;;;;;-11.19;94.19;99886.19;5093049;28;19947;-63
2022/02/04 14:01:56;;;;;;;;;;;;;;;-11.13;94.20;99862.84;5093459;28;19928;-63
2022/02/04 14:04:23;;;;;;;;;;;;;;;-11.09;94.21;99865.47;5091562;28;20364;-64
2022/02/04 14:06:49;;;;;;;;;;;;;;;-11.06;94.60;99847.06;5092945;28;19925;-65
2022/02/04 14:09:19;;;;;;;;;;;;;;;-10.98;93.95;99848.06;5091855;28;20378;-63
2022/02/04 14:11:47;;;;;;;;;;;;;;;-11.00;93.71;99832.09;5092677;28;19977;-62
2022/02/04 14:14:21;;;;;;;;;;;;;;;-10.90;94.00;99818.03;5091447;28;19924;-65
2022/02/04 14:16:52;;;;;;;;;;;;;;;-10.89;94.33;99805.50;5092000;28;19928;-64
2022/02/04 14:19:19;;;;;;;;;;;;;;;-10.84;94.60;99798.88;5092591;28;19997;-65
2022/02/04 14:21:45;;;;;;;;;;;;;;;-10.71;94.88;99791.50;5091355;28;19931;-63
2022/02/04 14:24:13;;;;;;;;;;;;;;;-10.68;94.99;99781.53;5091262;28;19924;-65
2022/02/04 14:26:44;;;;;;;;;;;;;;;-10.63;94.55;99773.22;5092119;28;19932;-64
2022/02/04 14:29:17;;;;;;;;;;;;;;;-10.68;94.52;99768.97;5092734;28;19924;-66
2022/02/04 14:31:50;;;;;;;;;;;;;;;-10.60;94.35;99744.78;5090991;28;20423;-65
2022/02/04 14:37:25;;;;;;;;;;;;;;;-10.47;94.05;99731.53;5092749;28;20444;-66
2022/02/04 14:53:44;;;;;;;;;;;;;;;-10.24;94.87;99656.34;5091639;28;19977;-67
2022/02/04 15:01:46;;;;;;;;;;;;;;;-10.15;94.57;99633.78;5090834;28;19928;-66
2022/02/04 15:04:23;;;;;;;;;;;;;;;-10.08;94.62;99612.91;5091937;28;19924;-64
2022/02/04 15:06:58;;;;;;;;;;;;;;;-10.03;94.19;99632.25;5090728;28;20017;-65
2022/02/04 15:09:24;;;;;;;;;;;;;;;-10.01;94.91;99613.81;5090906;28;19963;-66
2022/02/04 15:11:51;;;;;;;;;;;;;;;-9.97;95.25;99595.38;5091640;28;20454;-65
2022/02/04 15:14:19;;;;;;;;;;;;;;;-9.96;95.47;99612.19;5092193;28;20026;-62
2022/02/04 15:16:47;;;;;;;;;;;;;;;-9.95;94.65;99595.41;5090465;28;19931;-62
2022/02/04 15:19:14;;;;;;;;;;;;;;;-9.90;95.39;99591.28;5090404;28;19924;-63
2022/02/04 15:21:45;;;;;;;;;;;;;;;-9.91;94.78;99570.28;5084306;28;19931;-62
2022/02/04 15:24:11;;;;;;;;;;;;;;;-9.82;94.96;99576.22;5091874;28;19924;-62
2022/02/04 15:26:38;;;;;;;;;;;;;;;-9.81;95.13;99572.88;5091312;28;19928;-61
2022/02/04 15:29:08;;;;;;;;;;;;;;;-9.82;94.83;99574.56;5091462;28;19963;-62
2022/02/04 15:31:41;;;;;;;;;;;;;;;-9.79;94.62;99556.94;5091397;28;19930;-63
2022/02/04 15:34:09;;;;;;;;;;;;;;;-9.71;95.58;99550.31;5090634;28;20366;-62
2022/02/04 15:36:40;;;;;;;;;;;;;;;-9.73;95.35;99533.53;5091269;28;19935;-65
2022/02/04 15:39:08;;;;;;;;;;;;;;;-9.67;95.17;99533.56;5090790;28;19928;-65
2022/02/04 15:41:37;;;;;;;;;;;;;;;-9.65;95.37;99530.22;5088989;28;19924;-61
2022/02/04 15:44:10;;;;;;;;;;;;;;;-9.62;95.60;99531.91;5090228;28;19924;-61
2022/02/04 15:46:45;;;;;;;;;;;;;;;-9.57;95.73;99495.03;5090766;28;20018;-62
2022/02/04 15:49:33;;;;;;;;;;;;;;;-9.58;95.19;99520.19;5091602;28;19942;-63
2022/02/04 15:52:38;;;;;;;;;;;;;;;-9.53;95.38;99491.69;5090973;28;19928;-61
2022/02/04 15:55:26;;;;;;;;;;;;;;;-9.45;95.59;99479.97;5090598;28;19969;-61
2022/02/04 15:58:11;;;;;;;;;;;;;;;-9.37;96.46;99487.59;5090567;28;19933;-61
2022/02/04 16:03:36;;;;;;;;;;;;;;;-9.30;96.56;99468.28;5091204;28;19924;-61
2022/02/04 16:06:05;;;;;;;;;;;;;;;-9.25;97.22;99446.47;5092398;28;19924;-61
2022/02/04 16:08:32;;;;;;;;;;;;;;;-9.22;96.57;99428.88;5095992;28;20361;-61
2022/02/04 16:11:07;;;;;;;;;;;;;;;-9.15;96.64;99435.59;5094158;28;19930;-61
2022/02/04 16:13:41;;;;;;;;;;;;;;;-9.07;96.81;99433.94;5090938;28;19947;-62
2022/02/04 16:16:24;;;;;;;;;;;;;;;-9.03;96.98;99420.53;5093865;28;19924;-61
2022/02/04 16:19:02;;;;;;;;;;;;;;;-8.98;96.79;99420.53;5095009;28;19931;-61
2022/02/04 16:21:37;;;;;;;;;;;;;;;-8.96;96.88;99423.03;5093979;28;19924;-62
2022/02/04 16:24:20;;;;;;;;;;;;;;;-8.92;96.65;99404.59;5094263;28;19928;-61
2022/02/04 16:26:50;;;;;;;;;;;;;;;-8.84;97.17;99411.31;5096120;28;20000;-61
2022/02/04 16:29:17;;;;;;;;;;;;;;;-8.80;96.45;99413.00;5093956;28;19924;-61
2022/02/04 16:31:44;;;;;;;;;;;;;;;-8.90;96.25;99397.88;5093893;28;19924;-61
2022/02/04 16:34:12;;;;;;;;;;;;;;;-8.72;96.85;99392.03;5093804;28;19928;-66
2022/02/04 16:36:43;;;;;;;;;;;;;;;-8.64;96.49;99391.16;5094757;28;19947;-61
2022/02/04 16:39:10;;;;;;;;;;;;;;;-8.57;97.07;99380.25;5089129;28;20401;-61
2022/02/04 16:41:50;;;;;;;;;;;;;;;-8.60;96.72;99377.75;5093997;28;19924;-61
2022/02/04 16:44:16;;;;;;;;;;;;;;;-8.49;96.80;99381.94;5094416;28;19924;-62
2022/02/04 16:46:43;;;;;;;;;;;;;;;-8.50;96.45;99365.09;5094115;28;20896;-61
2022/02/04 16:49:10;;;;;;;;;;;;;;;-8.43;96.39;99371.84;5092960;28;19928;-61
2022/02/04 16:51:36;;;;;;;;;;;;;;;-8.37;96.84;99347.44;5093607;28;19931;-61
2022/02/04 16:54:04;;;;;;;;;;;;;;;-8.25;96.83;99353.28;5095189;28;19946;-62
2022/02/04 16:56:31;;;;;;;;;;;;;;;-8.24;96.78;99335.63;5093167;28;20290;-61
2022/02/04 16:58:59;;;;;;;;;;;;;;;-8.12;96.93;99349.91;5093244;28;19970;-61
2022/02/04 17:01:26;;;;;;;;;;;;;;;-8.04;96.98;99342.31;5094002;28;19946;-61
2022/02/04 17:03:52;;;;;;;;;;;;;;;-8.02;97.17;99336.41;5094663;28;19931;-61